createdAt,value
2019-04-14T00:00:05.368Z,20.40
2019-04-14T00:02:46.895Z,25.83
2019-04-14T00:05:16.897Z,21.03
2019-04-14T00:07:44.974Z,25.03
2019-04-14T00:10:13.892Z,24.30
2019-04-14T00:12:42.700Z,24.23
2019-04-14T00:15:21.118Z,27.57
2019-04-14T00:17:41.383Z,23.77
2019-04-14T00:20:09.554Z,26.93
2019-04-14T00:22:38.100Z,28.30
2019-04-14T00:25:06.471Z,24.83
2019-04-14T00:27:34.535Z,24.27
2019-04-14T00:30:03.361Z,23.80
2019-04-14T00:32:33.425Z,26.97
2019-04-14T00:35:12.518Z,27.50
2019-04-14T00:37:46.640Z,25.83
2019-04-14T00:40:19.912Z,29.87
2019-04-14T00:43:02.703Z,25.73
2019-04-14T00:45:42.597Z,27.90
2019-04-14T00:48:13.124Z,27.97
2019-04-14T00:50:38.783Z,28.13
2019-04-14T00:53:07.657Z,25.07
2019-04-14T00:55:35.749Z,27.27
2019-04-14T00:58:03.844Z,23.60
2019-04-14T01:00:32.003Z,29.20
2019-04-14T01:03:00.399Z,28.07
2019-04-14T01:05:28.671Z,24.40
2019-04-14T01:07:58.686Z,22.73
2019-04-14T01:10:27.814Z,26.63
2019-04-14T01:12:56.029Z,27.70
2019-04-14T01:15:24.649Z,26.30
2019-04-14T01:17:52.889Z,26.33
2019-04-14T01:20:21.092Z,27.13
2019-04-14T01:22:48.966Z,26.53
2019-04-14T01:25:17.129Z,33.03
2019-04-14T01:27:45.108Z,25.90
2019-04-14T01:30:13.355Z,25.50
2019-04-14T01:32:41.543Z,26.83
2019-04-14T01:35:09.633Z,20.80
2019-04-14T01:37:37.615Z,28.23
2019-04-14T01:40:05.360Z,23.90
2019-04-14T01:42:33.398Z,25.60
2019-04-14T01:45:01.429Z,26.87
2019-04-14T01:47:29.219Z,24.30
2019-04-14T01:49:57.350Z,24.10
2019-04-14T01:52:44.173Z,26.27
2019-04-14T01:55:24.475Z,24.87
2019-04-14T01:58:07.877Z,24.80
2019-04-14T02:00:55.586Z,22.43
2019-04-14T02:03:23.875Z,25.40
2019-04-14T02:05:51.814Z,27.27
2019-04-14T02:08:19.849Z,27.13
2019-04-14T02:10:47.939Z,26.07
2019-04-14T02:13:15.770Z,25.67
2019-04-14T02:15:44.272Z,30.77
2019-04-14T02:18:12.180Z,25.87
2019-04-14T02:20:40.359Z,23.53
2019-04-14T02:23:08.335Z,24.30
2019-04-14T02:25:36.298Z,25.93
2019-04-14T02:28:04.780Z,23.67
2019-04-14T02:30:38.907Z,27.57
2019-04-14T02:33:31.914Z,26.90
2019-04-14T02:43:31.041Z,24.67
2019-04-14T02:48:36.217Z,18.53
2019-04-14T02:50:56.109Z,16.10
2019-04-14T02:53:30.708Z,17.13
2019-04-14T02:56:00.772Z,16.67
2019-04-14T02:58:29.092Z,15.73
2019-04-14T03:01:03.980Z,15.50
2019-04-14T03:03:24.187Z,13.97
2019-04-14T03:05:51.300Z,14.60
2019-04-14T03:10:51.858Z,10.80
2019-04-14T03:15:48.264Z,13.27
2019-04-14T03:18:32.168Z,11.60
2019-04-14T03:21:09.242Z,9.50
2019-04-14T03:23:46.378Z,9.67
2019-04-14T03:26:11.795Z,9.60
2019-04-14T03:28:46.045Z,11.40
2019-04-14T03:31:52.464Z,9.17
2019-04-14T03:36:44.671Z,7.77
2019-04-14T03:38:50.253Z,9.33
2019-04-14T03:41:17.233Z,10.30
2019-04-14T03:43:36.802Z,9.10
2019-04-14T03:48:52.325Z,9.63
2019-04-14T03:51:17.419Z,9.50
2019-04-14T03:53:34.692Z,11.27
2019-04-14T03:55:49.133Z,12.27
2019-04-14T03:58:13.512Z,11.67
2019-04-14T04:00:42.158Z,11.67
2019-04-14T04:03:10.641Z,10.17
2019-04-14T04:05:39.131Z,11.93
2019-04-14T04:08:07.181Z,12.77
2019-04-14T04:10:37.837Z,10.43
2019-04-14T04:13:06.270Z,11.67
2019-04-14T04:15:34.308Z,11.70
2019-04-14T04:18:09.157Z,10.90
2019-04-14T04:20:56.660Z,11.03
2019-04-14T04:23:35.642Z,8.37
2019-04-14T04:26:09.025Z,9.87
2019-04-14T04:28:56.707Z,9.83
2019-04-14T04:31:28.732Z,11.47
2019-04-14T04:34:03.307Z,8.27
2019-04-14T04:36:37.747Z,10.37
2019-04-14T04:39:12.873Z,11.10
2019-04-14T04:41:40.759Z,10.30
2019-04-14T04:44:09.409Z,11.60
2019-04-14T04:46:37.363Z,8.57
2019-04-14T04:49:13.943Z,11.67
2019-04-14T04:51:35.619Z,10.83
2019-04-14T04:54:03.852Z,10.17
2019-04-14T04:56:31.885Z,9.53
2019-04-14T04:58:59.603Z,11.37
2019-04-14T05:01:27.441Z,9.17
2019-04-14T05:03:55.710Z,12.37
2019-04-14T05:06:24.746Z,9.40
2019-04-14T05:08:54.473Z,7.20
2019-04-14T05:11:29.431Z,8.37
2019-04-14T05:13:58.615Z,10.23
2019-04-14T05:16:26.255Z,9.73
2019-04-14T05:18:55.126Z,8.83
2019-04-14T05:21:23.522Z,9.80
2019-04-14T05:23:51.684Z,8.77
2019-04-14T05:26:19.895Z,8.17
2019-04-14T05:28:48.454Z,8.60
2019-04-14T05:31:16.451Z,9.77
2019-04-14T05:33:44.746Z,9.50
2019-04-14T05:36:12.837Z,9.37
2019-04-14T05:38:40.876Z,8.47
2019-04-14T05:41:09.115Z,9.00
2019-04-14T05:43:45.418Z,10.77
2019-04-14T05:46:07.637Z,8.13
2019-04-14T05:48:35.796Z,8.80
2019-04-14T05:51:04.182Z,8.37
2019-04-14T05:53:32.656Z,8.73
2019-04-14T05:56:01.464Z,9.23
2019-04-14T05:58:29.698Z,8.13
2019-04-14T06:00:57.984Z,8.10
2019-04-14T06:03:25.790Z,8.03
2019-04-14T06:05:53.675Z,7.33
2019-04-14T06:08:21.341Z,7.90
2019-04-14T06:10:49.072Z,9.07
2019-04-14T06:13:16.715Z,7.53
2019-04-14T06:15:44.360Z,7.77
2019-04-14T06:18:12.009Z,9.67
2019-04-14T06:20:39.663Z,10.80
2019-04-14T06:23:07.313Z,7.60
2019-04-14T06:25:36.379Z,7.53
2019-04-14T06:28:04.323Z,9.13
2019-04-14T06:30:43.048Z,8.43
2019-04-14T06:33:17.782Z,7.87
2019-04-14T06:35:55.118Z,9.07
2019-04-14T06:38:25.938Z,8.70
2019-04-14T06:40:58.823Z,7.80
2019-04-14T06:43:26.462Z,5.43
2019-04-14T06:45:54.100Z,8.70
2019-04-14T06:48:21.753Z,7.17
2019-04-14T06:50:49.399Z,8.37
2019-04-14T06:53:17.055Z,7.00
2019-04-14T06:55:44.778Z,5.90
2019-04-14T06:58:12.422Z,6.73
2019-04-14T07:00:40.137Z,10.23
2019-04-14T07:03:07.776Z,7.10
2019-04-14T07:05:35.406Z,8.10
2019-04-14T07:08:03.057Z,6.53
2019-04-14T07:10:30.700Z,8.03
2019-04-14T07:12:58.620Z,7.60
2019-04-14T07:15:26.339Z,8.57
2019-04-14T07:17:55.783Z,10.27
2019-04-14T07:20:23.573Z,7.57
2019-04-14T07:22:51.326Z,7.67
2019-04-14T07:25:18.969Z,9.80
2019-04-14T07:27:46.614Z,8.67
2019-04-14T07:30:38.314Z,10.03
2019-04-14T07:33:14.854Z,8.63
2019-04-14T07:35:55.115Z,9.77
2019-04-14T07:38:27.703Z,9.40
2019-04-14T07:41:04.092Z,10.67
2019-04-14T07:43:41.558Z,12.27
2019-04-14T07:46:13.742Z,12.10
2019-04-14T07:48:47.296Z,12.00
2019-04-14T07:51:20.155Z,12.17
2019-04-14T07:53:55.971Z,12.07
2019-04-14T07:56:43.702Z,13.23
2019-04-14T07:59:19.470Z,14.33
2019-04-14T08:01:53.270Z,11.47
2019-04-14T08:04:25.320Z,13.17
2019-04-14T08:06:55.450Z,13.63
2019-04-14T08:09:23.087Z,11.47
2019-04-14T08:11:50.748Z,10.43
2019-04-14T08:14:18.396Z,12.30
2019-04-14T08:16:46.072Z,12.87
2019-04-14T08:19:13.725Z,13.50
2019-04-14T08:21:41.655Z,15.30
2019-04-14T08:24:09.331Z,12.23
2019-04-14T08:26:37.015Z,12.23
2019-04-14T08:29:04.689Z,15.20
2019-04-14T08:31:32.451Z,14.77
2019-04-14T08:34:00.115Z,14.73
2019-04-14T08:36:27.781Z,14.37
2019-04-14T08:38:55.428Z,20.90
2019-04-14T08:41:23.109Z,15.80
2019-04-14T08:43:58.751Z,12.27
2019-04-14T08:46:36.760Z,19.17
2019-04-14T08:49:12.874Z,15.80
2019-04-14T08:51:50.033Z,15.17
2019-04-14T08:54:26.298Z,13.43
2019-04-14T08:57:04.107Z,17.70
2019-04-14T08:59:44.711Z,15.57
2019-04-14T09:02:31.407Z,20.23
2019-04-14T09:05:18.912Z,17.93
2019-04-14T09:07:50.147Z,19.40
2019-04-14T09:10:23.651Z,16.80
2019-04-14T09:12:52.947Z,18.03
2019-04-14T09:15:20.596Z,19.70
2019-04-14T09:17:48.263Z,18.37
2019-04-14T09:20:15.929Z,20.57
2019-04-14T09:22:43.583Z,20.70
2019-04-14T09:25:11.243Z,16.83
2019-04-14T09:27:38.903Z,19.40
2019-04-14T09:30:06.580Z,17.53
2019-04-14T09:32:34.314Z,19.80
2019-04-14T09:35:01.970Z,21.60
2019-04-14T09:37:29.611Z,20.73
2019-04-14T09:39:57.264Z,20.20
2019-04-14T09:42:24.935Z,23.10
2019-04-14T09:44:52.669Z,20.50
2019-04-14T09:47:20.311Z,21.67
2019-04-14T09:49:47.964Z,21.13
2019-04-14T09:52:15.625Z,19.23
2019-04-14T09:54:43.301Z,21.10
2019-04-14T09:57:10.947Z,21.07
2019-04-14T09:59:38.595Z,22.53
2019-04-14T10:02:06.239Z,24.77
2019-04-14T10:04:33.987Z,24.07
2019-04-14T10:07:01.710Z,21.73
2019-04-14T10:09:29.598Z,23.47
2019-04-14T10:11:57.324Z,21.80
2019-04-14T10:14:25.048Z,22.80
2019-04-14T10:16:52.700Z,20.17
2019-04-14T10:19:20.358Z,23.87
2019-04-14T10:21:48.027Z,21.97
2019-04-14T10:24:15.673Z,24.83
2019-04-14T10:26:43.319Z,23.70
2019-04-14T10:29:10.984Z,21.00
2019-04-14T10:31:38.627Z,26.23
2019-04-14T10:34:06.282Z,25.37
2019-04-14T10:36:33.931Z,23.20
2019-04-14T10:39:01.589Z,26.80
2019-04-14T10:41:29.243Z,23.23
2019-04-14T10:43:56.898Z,25.47
2019-04-14T10:46:24.561Z,26.33
2019-04-14T10:48:52.226Z,24.10
2019-04-14T10:51:29.345Z,24.20
2019-04-14T10:53:49.262Z,27.63
2019-04-14T10:56:16.952Z,27.57
2019-04-14T10:58:44.607Z,27.60
2019-04-14T11:01:12.260Z,28.93
2019-04-14T11:03:39.931Z,29.27
2019-04-14T11:06:14.344Z,28.67
2019-04-14T11:08:41.995Z,29.20
2019-04-14T11:11:09.643Z,30.60
2019-04-14T11:13:37.303Z,30.23
2019-04-14T11:16:05.079Z,29.60
2019-04-14T11:18:32.742Z,29.20
2019-04-14T11:21:00.470Z,28.53
2019-04-14T11:23:28.175Z,30.80
2019-04-14T11:25:55.837Z,31.53
2019-04-14T11:28:23.562Z,33.53
2019-04-14T11:30:51.407Z,31.73
2019-04-14T11:33:24.242Z,28.80
2019-04-14T11:35:57.728Z,30.50
2019-04-14T11:38:32.418Z,32.93
2019-04-14T11:41:02.079Z,38.97
2019-04-14T11:43:29.780Z,34.93
2019-04-14T11:45:57.609Z,35.50
2019-04-14T11:48:25.347Z,33.70
2019-04-14T11:50:53.008Z,34.57
2019-04-14T11:53:20.709Z,37.80
2019-04-14T11:55:48.384Z,36.57
2019-04-14T11:58:16.051Z,35.13
2019-04-14T12:00:48.880Z,33.70
2019-04-14T12:03:28.608Z,34.70
2019-04-14T12:06:01.509Z,31.47
2019-04-14T12:08:37.035Z,33.67
2019-04-14T12:11:04.708Z,32.03
2019-04-14T12:13:32.383Z,29.90
2019-04-14T12:16:00.049Z,35.83
2019-04-14T12:18:27.695Z,32.67
2019-04-14T12:20:55.360Z,32.50
2019-04-14T12:23:23.011Z,36.43
2019-04-14T12:25:50.680Z,33.03
2019-04-14T12:28:19.379Z,30.30
2019-04-14T12:30:47.175Z,38.03
2019-04-14T12:33:14.838Z,40.70
2019-04-14T12:35:42.499Z,37.23
2019-04-14T12:38:10.438Z,37.20
2019-04-14T12:40:38.816Z,40.73
2019-04-14T12:43:21.836Z,46.20
2019-04-14T12:46:06.345Z,39.67
2019-04-14T12:48:43.792Z,40.00
2019-04-14T12:51:20.548Z,42.80
2019-04-14T12:53:48.096Z,37.13
2019-04-14T12:56:18.435Z,36.13
2019-04-14T12:58:56.712Z,42.37
2019-04-14T13:01:25.143Z,44.67
2019-04-14T13:03:52.797Z,41.27
2019-04-14T13:06:20.451Z,36.53
2019-04-14T13:08:48.103Z,39.83
2019-04-14T13:11:15.768Z,36.30
2019-04-14T13:13:43.444Z,38.97
2019-04-14T13:16:11.131Z,39.80
2019-04-14T13:18:38.779Z,41.40
2019-04-14T13:21:06.433Z,43.90
2019-04-14T13:23:34.127Z,40.10
2019-04-14T13:26:01.861Z,44.53
2019-04-14T13:28:29.519Z,38.10
2019-04-14T13:30:57.174Z,40.30
2019-04-14T13:33:24.870Z,39.70
2019-04-14T13:35:52.607Z,40.73
2019-04-14T13:38:20.415Z,38.43
2019-04-14T13:40:48.066Z,37.37
2019-04-14T13:43:15.736Z,41.27
2019-04-14T13:45:43.396Z,41.30
2019-04-14T13:48:11.048Z,39.07
2019-04-14T13:50:38.699Z,47.27
2019-04-14T13:53:06.363Z,41.53
2019-04-14T13:55:34.419Z,39.57
2019-04-14T13:58:02.079Z,38.10
2019-04-14T14:00:29.732Z,41.60
2019-04-14T14:02:57.395Z,45.30
2019-04-14T14:05:25.057Z,39.20
2019-04-14T14:07:52.718Z,40.53
2019-04-14T14:10:20.370Z,39.80
2019-04-14T14:12:57.703Z,42.10
2019-04-14T14:15:40.206Z,46.13
2019-04-14T14:18:21.501Z,40.17
2019-04-14T14:20:58.369Z,44.00
2019-04-14T14:23:32.138Z,44.47
2019-04-14T14:26:03.047Z,44.50
2019-04-14T14:28:30.711Z,45.53
2019-04-14T14:30:58.377Z,56.97
2019-04-14T14:33:26.633Z,52.30
2019-04-14T14:35:54.347Z,47.10
2019-04-14T14:38:22.067Z,47.83
2019-04-14T14:40:49.743Z,44.97
2019-04-14T14:43:17.451Z,43.17
2019-04-14T14:45:56.498Z,44.17
2019-04-14T14:48:28.339Z,44.70
2019-04-14T14:51:02.799Z,44.33
2019-04-14T14:53:30.520Z,42.67
2019-04-14T14:55:58.210Z,44.03
2019-04-14T14:58:25.924Z,47.07
2019-04-14T15:00:53.579Z,44.47
2019-04-14T15:03:21.249Z,40.47
2019-04-14T15:05:48.903Z,39.63
2019-04-14T15:08:16.563Z,47.17
2019-04-14T15:10:44.322Z,45.07
2019-04-14T15:13:12.044Z,42.07
2019-04-14T15:15:39.726Z,44.40
2019-04-14T15:18:07.393Z,39.87
2019-04-14T15:20:35.048Z,39.50
2019-04-14T15:23:02.722Z,37.13
2019-04-14T15:25:30.379Z,40.73
2019-04-14T15:27:58.383Z,38.13
2019-04-14T15:30:26.098Z,38.00
2019-04-14T15:32:53.768Z,40.90
2019-04-14T15:35:21.431Z,37.40
2019-04-14T15:37:49.092Z,38.83
2019-04-14T15:40:16.756Z,36.17
2019-04-14T15:42:44.416Z,39.03
2019-04-14T15:45:13.992Z,41.30
2019-04-14T15:47:41.476Z,40.70
2019-04-14T15:50:09.136Z,36.33
2019-04-14T15:52:37.179Z,36.17
2019-04-14T15:55:04.859Z,40.83
2019-04-14T15:57:51.640Z,43.00
2019-04-14T16:00:41.208Z,47.10
2019-04-14T16:03:14.027Z,50.83
2019-04-14T16:05:50.311Z,39.90
2019-04-14T16:08:25.163Z,35.67
2019-04-14T16:10:57.029Z,36.97
2019-04-14T16:13:31.959Z,36.70
2019-04-14T16:16:09.759Z,43.23
2019-04-14T16:18:45.097Z,44.97
2019-04-14T16:21:12.769Z,40.60
2019-04-14T16:23:50.027Z,39.67
2019-04-14T16:26:29.779Z,42.50
2019-04-14T16:29:02.735Z,40.93
2019-04-14T16:31:44.680Z,43.33
2019-04-14T16:34:16.644Z,41.77
2019-04-14T16:36:45.129Z,40.17
2019-04-14T16:39:12.895Z,38.60
2019-04-14T16:41:40.551Z,42.37
2019-04-14T16:44:08.221Z,43.07
2019-04-14T16:46:35.965Z,44.17
2019-04-14T16:49:04.016Z,43.17
2019-04-14T16:51:37.109Z,44.13
2019-04-14T16:54:13.160Z,45.73
2019-04-14T16:56:54.224Z,43.30
2019-04-14T16:59:21.871Z,44.33
2019-04-14T17:01:50.323Z,41.13
2019-04-14T17:04:18.006Z,44.50
2019-04-14T17:06:45.680Z,43.23
2019-04-14T17:09:13.335Z,40.27
2019-04-14T17:11:41.000Z,44.23
2019-04-14T17:14:14.341Z,43.10
2019-04-14T17:16:54.073Z,39.70
2019-04-14T17:19:26.895Z,44.37
2019-04-14T17:22:04.745Z,39.87
2019-04-14T17:24:37.580Z,43.87
2019-04-14T17:27:24.289Z,40.03
2019-04-14T17:30:00.963Z,44.23
2019-04-14T17:32:35.485Z,36.20
2019-04-14T17:35:12.065Z,38.77
2019-04-14T17:38:00.768Z,40.50
2019-04-14T17:40:39.519Z,35.47
2019-04-14T17:43:11.390Z,40.17
2019-04-14T17:45:43.989Z,36.70
2019-04-14T17:48:21.065Z,43.77
2019-04-14T17:50:58.119Z,39.43
2019-04-14T17:53:44.815Z,38.93
2019-04-14T17:56:19.072Z,38.27
2019-04-14T17:58:52.088Z,42.30
2019-04-14T18:01:26.256Z,45.77
2019-04-14T18:03:58.972Z,39.43
2019-04-14T18:06:47.583Z,40.63
2019-04-14T18:09:37.123Z,42.00
2019-04-14T18:12:09.984Z,41.30
2019-04-14T18:14:42.443Z,45.17
2019-04-14T18:17:20.342Z,39.57
2019-04-14T18:19:53.027Z,42.83
2019-04-14T18:22:20.692Z,39.83
2019-04-14T18:24:48.347Z,45.90
2019-04-14T18:27:16.018Z,41.50
2019-04-14T18:29:55.934Z,40.37
2019-04-14T18:32:34.971Z,42.23
2019-04-14T18:35:07.479Z,40.80
2019-04-14T18:37:43.418Z,40.37
2019-04-14T18:40:22.861Z,42.60
2019-04-14T18:43:07.179Z,46.90
2019-04-14T18:45:38.463Z,48.53
2019-04-14T18:48:25.956Z,44.00
2019-04-14T18:51:08.290Z,45.90
2019-04-14T18:53:45.994Z,44.30
2019-04-14T18:56:24.204Z,44.13
2019-04-14T18:59:02.823Z,49.23
2019-04-14T19:01:33.879Z,42.67
2019-04-14T19:04:02.398Z,45.47
2019-04-14T19:06:30.228Z,44.93
2019-04-14T19:08:57.880Z,46.37
2019-04-14T19:11:45.496Z,48.67
2019-04-14T19:14:17.288Z,42.40
2019-04-14T19:16:48.507Z,48.53
2019-04-14T19:19:17.408Z,46.10
2019-04-14T19:21:45.060Z,47.13
2019-04-14T19:24:12.722Z,41.53
2019-04-14T19:26:40.368Z,43.43
2019-04-14T19:29:08.025Z,46.40
2019-04-14T19:31:35.675Z,45.67
2019-04-14T19:34:03.333Z,44.63
2019-04-14T19:36:31.015Z,48.37
2019-04-14T19:38:58.672Z,43.03
2019-04-14T19:41:26.337Z,46.53
2019-04-14T19:43:54.064Z,45.50
2019-04-14T19:46:21.727Z,47.37
2019-04-14T19:48:49.464Z,46.23
2019-04-14T19:51:17.112Z,46.37
2019-04-14T19:53:44.766Z,45.90
2019-04-14T19:56:12.416Z,48.47
2019-04-14T19:58:40.067Z,47.03
2019-04-14T20:01:07.737Z,46.60
2019-04-14T20:03:35.401Z,46.90
2019-04-14T20:06:03.048Z,46.27
2019-04-14T20:08:30.708Z,41.60
2019-04-14T20:10:58.393Z,43.00
2019-04-14T20:13:27.787Z,43.30
2019-04-14T20:16:04.456Z,40.63
2019-04-14T20:18:40.619Z,42.13
2019-04-14T20:21:30.928Z,45.97
2019-04-14T20:24:03.781Z,45.87
2019-04-14T20:26:36.806Z,42.07
2019-04-14T20:29:11.139Z,43.50
2019-04-14T20:31:45.143Z,45.20
2019-04-14T20:34:12.807Z,45.87
2019-04-14T20:36:40.464Z,40.23
2019-04-14T20:39:09.735Z,45.10
2019-04-14T20:41:37.399Z,39.60
2019-04-14T20:44:05.065Z,42.67
2019-04-14T21:01:10.775Z,41.20
2019-04-14T21:03:43.578Z,40.57
2019-04-14T21:06:17.199Z,44.40
2019-04-14T21:08:56.743Z,39.60
2019-04-14T21:11:27.823Z,42.23
2019-04-14T21:14:02.787Z,43.23
2019-04-14T21:16:35.492Z,40.47
2019-04-14T21:19:10.780Z,40.63
2019-04-14T21:21:43.601Z,43.23
2019-04-14T21:24:16.603Z,47.07
2019-04-14T21:26:51.350Z,45.80
2019-04-14T21:29:41.134Z,46.67
2019-04-14T21:32:15.783Z,49.57
2019-04-14T21:34:51.235Z,51.57
2019-04-14T21:37:26.364Z,50.30
2019-04-14T21:40:01.603Z,52.60
2019-04-14T21:42:29.267Z,55.40
2019-04-14T21:44:56.919Z,52.83
2019-04-14T21:47:24.574Z,50.57
2019-04-14T21:49:52.357Z,57.67
2019-04-14T21:52:29.714Z,46.60
2019-04-14T21:54:57.371Z,51.50
2019-04-14T21:57:47.133Z,51.33
2019-04-14T22:00:38.875Z,50.47
2019-04-14T22:03:11.945Z,50.50
2019-04-14T22:05:46.183Z,47.77
2019-04-14T22:08:17.891Z,46.90
2019-04-14T22:10:49.446Z,43.70
2019-04-14T22:13:17.296Z,42.63
2019-04-14T22:15:45.008Z,43.43
2019-04-14T22:18:12.671Z,44.50
2019-04-14T22:20:40.321Z,43.17
2019-04-14T22:23:11.860Z,40.97
2019-04-14T22:25:39.512Z,39.97
2019-04-14T22:28:07.171Z,42.87
2019-04-14T22:30:34.857Z,40.20
2019-04-14T22:33:02.507Z,41.70
2019-04-14T22:35:30.165Z,41.90
2019-04-14T22:37:57.813Z,43.77
2019-04-14T22:40:25.463Z,40.17
2019-04-14T22:42:53.128Z,37.67
2019-04-14T22:45:20.767Z,39.47
2019-04-14T22:47:48.427Z,38.90
2019-04-14T22:50:16.072Z,39.50
2019-04-14T22:52:43.753Z,41.80
2019-04-14T22:55:11.419Z,43.17
2019-04-14T22:57:39.079Z,46.80
2019-04-14T23:00:07.139Z,45.63
2019-04-14T23:02:45.117Z,43.33
2019-04-14T23:05:26.835Z,44.87
2019-04-14T23:08:01.991Z,41.30
2019-04-14T23:10:38.971Z,38.57
2019-04-14T23:13:11.558Z,41.83
2019-04-14T23:15:50.100Z,42.40
2019-04-14T23:18:27.493Z,41.00
2019-04-14T23:21:14.187Z,40.73
2019-04-14T23:23:48.815Z,40.30
2019-04-14T23:26:16.509Z,40.43
2019-04-14T23:28:44.159Z,39.37
2019-04-14T23:31:11.885Z,43.07
2019-04-14T23:33:39.539Z,42.13
2019-04-14T23:36:07.192Z,38.37
2019-04-14T23:38:34.853Z,41.57
2019-04-14T23:41:02.531Z,40.23
2019-04-14T23:43:30.179Z,39.33
2019-04-14T23:45:57.827Z,44.43
2019-04-14T23:48:25.483Z,45.50
2019-04-14T23:50:53.131Z,42.50
2019-04-14T23:53:20.783Z,44.87
2019-04-14T23:55:50.176Z,46.57
2019-04-14T23:58:17.830Z,37.33
